METAR Data
IDs: Format: Raw Decoded Include TAF

Data at: 2342 UTC 25 Oct 2021

PAAQ 252253Z 00000KT 10SM CLR 02/M02 A2905 RMK AO2 SLP839 T00221017
PAAQ 252153Z 23004KT 10SM CLR 02/M02 A2905 RMK AO2 SLP840 T00171017
PAAQ 252053Z 00000KT 10SM CLR 00/M02 A2905 RMK AO2 SLP842 T00001017 58002
PAAQ 251953Z 00000KT 10SM CLR M01/M03 A2906 RMK AO2 SLP843 T10111028
PAAQ 251853Z 00000KT 10SM CLR M02/M03 A2906 RMK AO2 SLP845 T10171033
PAAQ 251753Z 15003KT 10SM FEW120 M02/M03 A2906 RMK AO2 SLP844 T10171033 11006 21017 56012 $
PAAQ 251653Z 00000KT 10SM SCT120 M01/M03 A2907 RMK AO2 SLP848 T10111033 $
PAAQ 251553Z 00000KT 10SM SCT120 M01/M03 A2908 RMK AO2 SLP852 T10111033 $
PAAQ 251453Z AUTO 00000KT 10SM SCT120 M01/M03 A2910 RMK AO2 SLP856 T10061033 56012 TSNO $
PAAQ 251353Z AUTO 07005KT 10SM BKN110 M01/M03 A2910 RMK AO2 SLP858 T10111033 TSNO $
PAAQ 251253Z AUTO 00000KT 10SM SCT110 M01/M03 A2911 RMK AO2 SLP862 T10111033 TSNO $
PAAQ 251153Z AUTO 11005KT 10SM SCT110 M02/M04 A2913 RMK AO2 SLP869 T10171039 10022 21017 58020 TSNO $
PAAQ 251053Z AUTO 13003KT 10SM OVC120 M01/M04 A2916 RMK AO2 SLP879 T10061039 TSNO $
PAAQ 250953Z AUTO 00000KT 10SM BKN120 01/M04 A2918 RMK AO2 SLP883 T00061039 TSNO $
PAAQ 250853Z AUTO 36006KT 10SM FEW120 02/M04 A2919 RMK AO2 SLP889 T00171044 401000000 56017 TSNO $
PAAQ 250753Z AUTO 34005KT 10SM CLR 02/M04 A2921 RMK AO2 SLP893 T00171044 TSNO $
PAAQ 250653Z AUTO 35006KT 10SM CLR 01/M03 A2922 RMK AO2 SLP898 T00061033 TSNO $
PAAQ 250553Z AUTO 34006KT 10SM CLR 02/M03 A2924 RMK AO2 SLP906 T00171033 10100 20011 58021 TSNO $
PAAQ 250453Z AUTO 02004KT 10SM CLR 01/M03 A2927 RMK AO2 SLP916 T00111028 TSNO $
PAAQ 250353Z AUTO 35006KT 10SM CLR 03/M03 A2929 RMK AO2 SLP921 T00331028 TSNO $
PAAQ 250253Z AUTO 00000KT 10SM CLR 06/M02 A2931 RMK AO2 SLP927 T00561017 56016 TSNO $
PAAQ 250153Z 00000KT 10SM FEW040 SCT200 06/M01 A2932 RMK AO2 SLP932 T00611011 $
PAAQ 250053Z 14004KT 10SM FEW040 FEW200 08/M01 A2933 RMK AO2 SLP936 T00831006 $
PAAQ 242353Z 00000KT 10SM FEW040 FEW080 09/01 A2935 RMK AO2 SLP942 T00890006 10094 20039 58015 $
PAAQ 242253Z 10006KT 10SM FEW040 SCT065 09/01 A2938 RMK AO2 SLP950 T00940006 $
PAAQ 242153Z 13007KT 10SM FEW040 SCT080 09/01 A2939 RMK AO2 SLP955 T00890011 $
PAAQ 242053Z VRB06KT 10SM SCT110 08/01 A2940 RMK AO2 SLP958 T00780011 58005 $
PAAQ 241953Z 01006KT 10SM BKN110 06/02 A2940 RMK AO2 SLP960 T00610017 $
PAAQ 241853Z 34007KT 10SM OVC090 04/01 A2941 RMK AO2 SLP963 T00440011 $
PAAQ 241753Z 36007KT 340V050 10SM OVC080 04/01 A2941 RMK AO2 SLP963 60000 T00440011 10056 20039 51003 $
PAAQ 241653Z 36008KT 10SM OVC085 04/01 A2941 RMK AO2 SLP963 T00390011 $
PAAQ 241553Z 36003KT 10SM OVC080 04/02 A2941 RMK AO2 SLP964 T00390017 $
PAAQ 241453Z AUTO 35006KT 10SM OVC090 04/02 A2940 RMK AO2 SLP960 60000 T00390017 51011 TSNO $
PAAQ 241353Z AUTO 34007KT 10SM OVC070 04/01 A2940 RMK AO2 RAE26 SLP959 P0000 T00390011 TSNO $
PAAQ 241253Z AUTO 36005KT 10SM -RA OVC044 04/01 A2939 RMK AO2 RAB16E28B49 SLP956 P0000 T00390011 TSNO $
PAAQ 241153Z AUTO 34007KT 10SM OVC060 04/M01 A2937 RMK AO2 SLP948 T00391006 10072 20022 51028 TSNO $